sensor_id;sensor_type;location;lat;lon;timestamp;pressure;altitude;pressure_sealevel;temperature;humidity
42169;BME280;27838;43.858;25.974;2022-11-15T00:00:50;101962.16;;;11.99;61.21
42169;BME280;27838;43.858;25.974;2022-11-15T00:03:18;101957.72;;;11.95;61.33
42169;BME280;27838;43.858;25.974;2022-11-15T00:05:45;101958.59;;;11.94;61.14
42169;BME280;27838;43.858;25.974;2022-11-15T00:08:12;101949.84;;;11.93;61.38
42169;BME280;27838;43.858;25.974;2022-11-15T00:10:39;101960.38;;;11.98;61.42
42169;BME280;27838;43.858;25.974;2022-11-15T00:13:10;101949.94;;;11.99;61.29
42169;BME280;27838;43.858;25.974;2022-11-15T00:15:38;101950.81;;;12.00;61.22
42169;BME280;27838;43.858;25.974;2022-11-15T00:18:06;101950.88;;;12.03;61.29
42169;BME280;27838;43.858;25.974;2022-11-15T00:20:37;101943.06;;;12.06;61.10
42169;BME280;27838;43.858;25.974;2022-11-15T00:23:04;101941.28;;;12.03;60.94
42169;BME280;27838;43.858;25.974;2022-11-15T00:25:31;101930.75;;;11.97;60.95
42169;BME280;27838;43.858;25.974;2022-11-15T00:27:58;101936.00;;;11.97;61.20
42169;BME280;27838;43.858;25.974;2022-11-15T00:30:26;101939.50;;;11.99;61.13
42169;BME280;27838;43.858;25.974;2022-11-15T00:32:52;101932.53;;;12.00;61.30
42169;BME280;27838;43.858;25.974;2022-11-15T00:35:19;101923.78;;;11.96;61.40
42169;BME280;27838;43.858;25.974;2022-11-15T00:37:46;101926.34;;;11.95;61.50
42169;BME280;27838;43.858;25.974;2022-11-15T00:40:13;101928.09;;;11.94;61.61
42169;BME280;27838;43.858;25.974;2022-11-15T00:42:40;101922.88;;;11.94;61.44
42169;BME280;27838;43.858;25.974;2022-11-15T00:45:08;101926.41;;;11.98;61.42
42169;BME280;27838;43.858;25.974;2022-11-15T00:47:34;101915.94;;;11.96;61.38
42169;BME280;27838;43.858;25.974;2022-11-15T00:50:01;101918.47;;;11.92;61.61
42169;BME280;27838;43.858;25.974;2022-11-15T00:52:27;101922.03;;;11.97;61.66
42169;BME280;27838;43.858;25.974;2022-11-15T00:54:54;101922.91;;;11.96;61.50
42169;BME280;27838;43.858;25.974;2022-11-15T00:57:20;101910.63;;;11.92;61.59
42169;BME280;27838;43.858;25.974;2022-11-15T00:59:47;101912.47;;;11.97;61.45
42169;BME280;27838;43.858;25.974;2022-11-15T01:02:13;101910.78;;;12.01;61.41
42169;BME280;27838;43.858;25.974;2022-11-15T01:04:40;101915.97;;;11.99;61.50
42169;BME280;27838;43.858;25.974;2022-11-15T01:07:06;101902.78;;;11.90;61.46
42169;BME280;27838;43.858;25.974;2022-11-15T01:09:33;101903.66;;;11.90;60.88
42169;BME280;27838;43.858;25.974;2022-11-15T01:11:59;101908.97;;;11.97;60.89
42169;BME280;27838;43.858;25.974;2022-11-15T01:14:26;101904.63;;;11.97;61.11
42169;BME280;27838;43.858;25.974;2022-11-15T01:16:52;101895.84;;;11.92;61.15
42169;BME280;27838;43.858;25.974;2022-11-15T01:19:19;101905.50;;;11.98;61.02
42169;BME280;27838;43.858;25.974;2022-11-15T01:21:48;101899.38;;;11.96;61.12
42169;BME280;27838;43.858;25.974;2022-11-15T01:24:15;101902.84;;;11.95;61.38
42169;BME280;27838;43.858;25.974;2022-11-15T01:26:42;101906.34;;;11.94;61.18
42169;BME280;27838;43.858;25.974;2022-11-15T01:29:08;101904.63;;;11.97;61.02
42169;BME280;27838;43.858;25.974;2022-11-15T01:31:35;101901.13;;;11.97;61.02
42169;BME280;27838;43.858;25.974;2022-11-15T01:34:01;101897.66;;;11.98;61.07
42169;BME280;27838;43.858;25.974;2022-11-15T01:36:28;101899.44;;;12.02;60.54
42169;BME280;27838;43.858;25.974;2022-11-15T01:38:56;101897.75;;;12.04;60.60
42169;BME280;27838;43.858;25.974;2022-11-15T01:41:28;101902.97;;;12.02;60.57
42169;BME280;27838;43.858;25.974;2022-11-15T01:43:57;101900.38;;;12.07;59.95
42169;BME280;27838;43.858;25.974;2022-11-15T01:46:45;101892.53;;;12.05;59.73
42169;BME280;27838;43.858;25.974;2022-11-15T01:49:18;101892.63;;;12.12;59.25
42169;BME280;27838;43.858;25.974;2022-11-15T01:51:46;101889.09;;;12.08;59.59
42169;BME280;27838;43.858;25.974;2022-11-15T01:54:17;101882.97;;;12.06;59.44
42169;BME280;27838;43.858;25.974;2022-11-15T01:57:01;101879.47;;;12.04;59.37
42169;BME280;27838;43.858;25.974;2022-11-15T01:59:29;101875.97;;;12.05;59.25
42169;BME280;27838;43.858;25.974;2022-11-15T02:01:56;101882.94;;;12.04;59.44
42169;BME280;27838;43.858;25.974;2022-11-15T02:04:25;101878.50;;;11.97;59.68
42169;BME280;27838;43.858;25.974;2022-11-15T02:06:53;101876.66;;;11.92;60.05
42169;BME280;27838;43.858;25.974;2022-11-15T02:09:19;101875.00;;;11.97;59.69
42169;BME280;27838;43.858;25.974;2022-11-15T02:11:47;101874.09;;;11.95;59.69
42169;BME280;27838;43.858;25.974;2022-11-15T02:14:16;101876.72;;;11.95;59.77
42169;BME280;27838;43.858;25.974;2022-11-15T02:16:59;101873.22;;;11.94;59.62
42169;BME280;27838;43.858;25.974;2022-11-15T02:24:54;101860.97;;;11.90;59.12
42169;BME280;27838;43.858;25.974;2022-11-15T02:27:57;101868.81;;;11.90;59.58
42169;BME280;27838;43.858;25.974;2022-11-15T02:32:57;101860.16;;;11.93;59.67
42169;BME280;27838;43.858;25.974;2022-11-15T02:37:56;101857.63;;;12.00;59.42
42169;BME280;27838;43.858;25.974;2022-11-15T02:43:10;101862.88;;;12.03;58.95
42169;BME280;27838;43.858;25.974;2022-11-15T02:46:54;101862.03;;;12.03;59.17
42169;BME280;27838;43.858;25.974;2022-11-15T02:49:11;101863.78;;;12.04;59.21
42169;BME280;27838;43.858;25.974;2022-11-15T02:51:38;101862.03;;;12.03;59.06
42169;BME280;27838;43.858;25.974;2022-11-15T02:54:06;101863.75;;;12.02;58.98
42169;BME280;27838;43.858;25.974;2022-11-15T02:56:32;101859.38;;;12.00;59.09
42169;BME280;27838;43.858;25.974;2022-11-15T02:59:02;101859.34;;;11.98;59.18
42169;BME280;27838;43.858;25.974;2022-11-15T03:09:34;101859.31;;;11.97;59.36
42169;BME280;27838;43.858;25.974;2022-11-15T03:12:11;101853.22;;;11.96;59.25
42169;BME280;27838;43.858;25.974;2022-11-15T03:17:29;101843.59;;;11.92;59.57
42169;BME280;27838;43.858;25.974;2022-11-15T03:19:58;101849.75;;;11.97;59.45
42169;BME280;27838;43.858;25.974;2022-11-15T03:22:28;101839.28;;;11.96;58.89
42169;BME280;27838;43.858;25.974;2022-11-15T03:24:59;101841.09;;;12.01;58.84
42169;BME280;27838;43.858;25.974;2022-11-15T03:27:31;101840.28;;;12.04;58.68
42169;BME280;27838;43.858;25.974;2022-11-15T03:30:02;101847.16;;;11.97;58.66
42169;BME280;27838;43.858;25.974;2022-11-15T03:32:34;101840.25;;;12.02;58.78
42169;BME280;27838;43.858;25.974;2022-11-15T03:35:05;101852.44;;;12.03;58.52
42169;BME280;27838;43.858;25.974;2022-11-15T03:37:37;101835.88;;;12.03;58.60
42169;BME280;27838;43.858;25.974;2022-11-15T03:40:07;101834.13;;;11.99;58.71
42169;BME280;27838;43.858;25.974;2022-11-15T03:42:41;101829.66;;;11.93;58.99
42169;BME280;27838;43.858;25.974;2022-11-15T03:48:12;101816.63;;;11.95;58.98
42169;BME280;27838;43.858;25.974;2022-11-15T03:50:42;101814.91;;;11.98;58.85
42169;BME280;27838;43.858;25.974;2022-11-15T03:53:09;101814.13;;;12.05;58.85
42169;BME280;27838;43.858;25.974;2022-11-15T03:55:36;101820.28;;;12.07;58.43
42169;BME280;27838;43.858;25.974;2022-11-15T03:58:03;101821.19;;;12.11;58.97
42169;BME280;27838;43.858;25.974;2022-11-15T04:00:29;101819.41;;;12.10;58.69
42169;BME280;27838;43.858;25.974;2022-11-15T04:02:56;101815.97;;;12.11;58.39
42169;BME280;27838;43.858;25.974;2022-11-15T04:05:23;101815.97;;;12.11;57.95
42169;BME280;27838;43.858;25.974;2022-11-15T04:07:50;101812.44;;;12.11;58.19
42169;BME280;27838;43.858;25.974;2022-11-15T04:10:16;101810.75;;;12.13;58.38
42169;BME280;27838;43.858;25.974;2022-11-15T04:12:44;101813.38;;;12.16;57.89
42169;BME280;27838;43.858;25.974;2022-11-15T04:15:17;101809.06;;;12.19;58.08
42169;BME280;27838;43.858;25.974;2022-11-15T04:17:50;101809.88;;;12.15;57.82
42169;BME280;27838;43.858;25.974;2022-11-15T04:20:23;101797.66;;;12.11;58.04
42169;BME280;27838;43.858;25.974;2022-11-15T04:23:13;101802.91;;;12.14;57.70
42169;BME280;27838;43.858;25.974;2022-11-15T04:26:00;101808.97;;;12.10;58.20
42169;BME280;27838;43.858;25.974;2022-11-15T04:28:27;101809.81;;;12.09;57.96
42169;BME280;27838;43.858;25.974;2022-11-15T04:30:54;101800.22;;;12.06;58.22
42169;BME280;27838;43.858;25.974;2022-11-15T04:33:21;101806.31;;;12.07;58.47
42169;BME280;27838;43.858;25.974;2022-11-15T04:35:48;101805.47;;;12.08;58.15
42169;BME280;27838;43.858;25.974;2022-11-15T04:38:28;101807.19;;;12.06;58.28
42169;BME280;27838;43.858;25.974;2022-11-15T04:40:55;101805.41;;;12.03;58.55
42169;BME280;27838;43.858;25.974;2022-11-15T04:43:22;101799.34;;;12.09;58.21
42169;BME280;27838;43.858;25.974;2022-11-15T04:45:48;101798.50;;;12.08;57.87
42169;BME280;27838;43.858;25.974;2022-11-15T04:48:15;101792.47;;;12.13;57.83
42169;BME280;27838;43.858;25.974;2022-11-15T04:50:41;101786.28;;;12.09;57.90
42169;BME280;27838;43.858;25.974;2022-11-15T04:53:08;101795.06;;;12.16;57.74
42169;BME280;27838;43.858;25.974;2022-11-15T04:55:34;101794.25;;;12.18;57.36
42169;BME280;27838;43.858;25.974;2022-11-15T04:58:02;101796.88;;;12.20;57.37
42169;BME280;27838;43.858;25.974;2022-11-15T05:00:29;101797.72;;;12.17;57.33
42169;BME280;27838;43.858;25.974;2022-11-15T05:02:56;101802.09;;;12.18;57.46
42169;BME280;27838;43.858;25.974;2022-11-15T05:05:41;101795.94;;;12.13;57.93
42169;BME280;27838;43.858;25.974;2022-11-15T05:08:08;101795.06;;;12.11;58.00
42169;BME280;27838;43.858;25.974;2022-11-15T05:10:34;101796.81;;;12.14;57.62
42169;BME280;27838;43.858;25.974;2022-11-15T05:13:01;101800.31;;;12.16;57.96
42169;BME280;27838;43.858;25.974;2022-11-15T05:15:27;101795.97;;;12.16;57.57
42169;BME280;27838;43.858;25.974;2022-11-15T05:17:58;101791.69;;;12.21;57.54
42169;BME280;27838;43.858;25.974;2022-11-15T05:20:25;101800.44;;;12.25;57.18
42169;BME280;27838;43.858;25.974;2022-11-15T05:22:53;101791.69;;;12.24;57.44
42169;BME280;27838;43.858;25.974;2022-11-15T05:25:20;101790.78;;;12.21;57.44
42169;BME280;27838;43.858;25.974;2022-11-15T05:27:47;101794.22;;;12.15;57.62
42169;BME280;27838;43.858;25.974;2022-11-15T05:30:15;101799.44;;;12.15;57.67
42169;BME280;27838;43.858;25.974;2022-11-15T05:32:42;101790.72;;;12.15;57.62
42169;BME280;27838;43.858;25.974;2022-11-15T05:35:13;101798.56;;;12.15;57.87
42169;BME280;27838;43.858;25.974;2022-11-15T05:37:44;101790.75;;;12.19;57.17
42169;BME280;27838;43.858;25.974;2022-11-15T05:40:10;101791.66;;;12.20;57.14
42169;BME280;27838;43.858;25.974;2022-11-15T05:42:37;101783.72;;;12.12;57.78
42169;BME280;27838;43.858;25.974;2022-11-15T05:45:06;101791.59;;;12.15;57.34
42169;BME280;27838;43.858;25.974;2022-11-15T05:47:33;101793.38;;;12.16;57.47
42169;BME280;27838;43.858;25.974;2022-11-15T05:50:00;101789.84;;;12.16;57.30
42169;BME280;27838;43.858;25.974;2022-11-15T05:52:29;101786.31;;;12.11;57.93
42169;BME280;27838;43.858;25.974;2022-11-15T05:54:58;101792.47;;;12.16;57.44
42169;BME280;27838;43.858;25.974;2022-11-15T05:57:25;101789.84;;;12.13;57.44
42169;BME280;27838;43.858;25.974;2022-11-15T05:59:51;101796.84;;;12.17;57.50
42169;BME280;27838;43.858;25.974;2022-11-15T06:02:18;101795.06;;;12.16;57.61
42169;BME280;27838;43.858;25.974;2022-11-15T06:04:44;101803.81;;;12.18;57.35
42169;BME280;27838;43.858;25.974;2022-11-15T06:07:11;101799.53;;;12.21;57.13
42169;BME280;27838;43.858;25.974;2022-11-15T06:09:37;101797.66;;;12.14;57.56
42169;BME280;27838;43.858;25.974;2022-11-15T06:12:04;101809.03;;;12.18;57.38
42169;BME280;27838;43.858;25.974;2022-11-15T06:14:31;101809.94;;;12.18;57.20
42169;BME280;27838;43.858;25.974;2022-11-15T06:16:57;101808.25;;;12.23;56.99
42169;BME280;27838;43.858;25.974;2022-11-15T06:19:24;101807.38;;;12.24;57.07
42169;BME280;27838;43.858;25.974;2022-11-15T06:21:50;101810.00;;;12.26;56.44
42169;BME280;27838;43.858;25.974;2022-11-15T06:24:17;101804.78;;;12.27;56.86
42169;BME280;27838;43.858;25.974;2022-11-15T06:26:43;101810.94;;;12.31;56.61
42169;BME280;27838;43.858;25.974;2022-11-15T06:29:10;101811.78;;;12.32;56.37
42169;BME280;27838;43.858;25.974;2022-11-15T06:31:36;101800.38;;;12.20;56.81
42169;BME280;27838;43.858;25.974;2022-11-15T06:34:03;101810.88;;;12.25;56.79
42169;BME280;27838;43.858;25.974;2022-11-15T06:36:30;101803.81;;;12.19;56.78
42169;BME280;27838;43.858;25.974;2022-11-15T06:38:56;101806.41;;;12.18;57.08
42169;BME280;27838;43.858;25.974;2022-11-15T06:41:25;101810.78;;;12.17;56.96
42169;BME280;27838;43.858;25.974;2022-11-15T06:43:52;101802.03;;;12.14;57.08
42169;BME280;27838;43.858;25.974;2022-11-15T06:46:18;101809.94;;;12.18;57.22
42169;BME280;27838;43.858;25.974;2022-11-15T06:48:45;101810.84;;;12.22;56.73
42169;BME280;27838;43.858;25.974;2022-11-15T06:51:11;101813.53;;;12.31;56.62
42169;BME280;27838;43.858;25.974;2022-11-15T06:53:38;101807.44;;;12.29;56.67
42169;BME280;27838;43.858;25.974;2022-11-15T06:56:06;101804.75;;;12.24;56.71
42169;BME280;27838;43.858;25.974;2022-11-15T06:58:33;101805.69;;;12.30;56.72
42169;BME280;27838;43.858;25.974;2022-11-15T07:01:01;101807.44;;;12.29;56.54
42169;BME280;27838;43.858;25.974;2022-11-15T07:03:28;101803.94;;;12.32;56.70
42169;BME280;27838;43.858;25.974;2022-11-15T07:05:56;101803.97;;;12.33;56.60
42169;BME280;27838;43.858;25.974;2022-11-15T07:08:23;101798.75;;;12.35;56.27
42169;BME280;27838;43.858;25.974;2022-11-15T07:10:50;101799.66;;;12.38;55.83
42169;BME280;27838;43.858;25.974;2022-11-15T07:13:17;101794.47;;;12.40;56.20
42169;BME280;27838;43.858;25.974;2022-11-15T07:15:43;101798.00;;;12.45;55.89
42169;BME280;27838;43.858;25.974;2022-11-15T07:18:10;101794.50;;;12.44;55.75
42169;BME280;27838;43.858;25.974;2022-11-15T07:20:36;101793.59;;;12.44;55.60
42169;BME280;27838;43.858;25.974;2022-11-15T07:23:05;101782.28;;;12.42;55.86
42169;BME280;27838;43.858;25.974;2022-11-15T07:25:31;101791.03;;;12.47;55.56
42169;BME280;27838;43.858;25.974;2022-11-15T07:27:59;101785.75;;;12.44;55.98
42169;BME280;27838;43.858;25.974;2022-11-15T07:30:26;101777.81;;;12.33;55.84
42169;BME280;27838;43.858;25.974;2022-11-15T07:32:57;101787.47;;;12.39;56.08
42169;BME280;27838;43.858;25.974;2022-11-15T07:35:25;101779.63;;;12.37;56.00
42169;BME280;27838;43.858;25.974;2022-11-15T07:38:01;101786.69;;;12.46;55.72
42169;BME280;27838;43.858;25.974;2022-11-15T07:40:29;101779.63;;;12.39;55.79
42169;BME280;27838;43.858;25.974;2022-11-15T07:43:03;101781.41;;;12.41;56.26
42169;BME280;27838;43.858;25.974;2022-11-15T07:45:30;101784.91;;;12.43;55.78
42169;BME280;27838;43.858;25.974;2022-11-15T07:47:58;101779.66;;;12.43;56.18
42169;BME280;27838;43.858;25.974;2022-11-15T07:50:26;101775.38;;;12.49;56.04
42169;BME280;27838;43.858;25.974;2022-11-15T07:52:58;101780.59;;;12.50;55.80
42169;BME280;27838;43.858;25.974;2022-11-15T07:55:27;101778.81;;;12.47;55.98
42169;BME280;27838;43.858;25.974;2022-11-15T07:58:05;101774.47;;;12.46;55.80
42169;BME280;27838;43.858;25.974;2022-11-15T08:00:33;101779.75;;;12.50;55.52
42169;BME280;27838;43.858;25.974;2022-11-15T08:03:11;101776.28;;;12.55;55.49
42169;BME280;27838;43.858;25.974;2022-11-15T08:05:39;101778.03;;;12.58;55.51
42169;BME280;27838;43.858;25.974;2022-11-15T08:08:08;101778.03;;;12.58;55.20
42169;BME280;27838;43.858;25.974;2022-11-15T08:10:35;101779.78;;;12.56;55.57
42169;BME280;27838;43.858;25.974;2022-11-15T08:13:08;101780.66;;;12.53;55.66
42169;BME280;27838;43.858;25.974;2022-11-15T08:15:36;101782.38;;;12.51;55.82
42169;BME280;27838;43.858;25.974;2022-11-15T08:18:05;101771.91;;;12.51;55.94
42169;BME280;27838;43.858;25.974;2022-11-15T08:20:32;101772.81;;;12.55;55.65
42169;BME280;27838;43.858;25.974;2022-11-15T08:23:01;101770.19;;;12.56;55.74
42169;BME280;27838;43.858;25.974;2022-11-15T08:25:29;101769.31;;;12.56;55.38
42169;BME280;27838;43.858;25.974;2022-11-15T08:27:58;101770.19;;;12.56;55.41
42169;BME280;27838;43.858;25.974;2022-11-15T08:30:25;101766.69;;;12.54;55.73
42169;BME280;27838;43.858;25.974;2022-11-15T08:32:53;101771.03;;;12.54;55.57
42169;BME280;27838;43.858;25.974;2022-11-15T08:35:20;101762.34;;;12.53;55.61
42169;BME280;27838;43.858;25.974;2022-11-15T08:37:47;101759.75;;;12.59;55.49
42169;BME280;27838;43.858;25.974;2022-11-15T08:40:14;101760.66;;;12.63;55.45
42169;BME280;27838;43.858;25.974;2022-11-15T08:42:40;101761.56;;;12.63;55.72
42169;BME280;27838;43.858;25.974;2022-11-15T08:45:08;101756.31;;;12.63;55.51
42169;BME280;27838;43.858;25.974;2022-11-15T08:47:35;101732.75;;;12.59;55.49
42169;BME280;27838;43.858;25.974;2022-11-15T08:50:01;101745.84;;;12.63;55.20
42169;BME280;27838;43.858;25.974;2022-11-15T08:52:28;101743.22;;;12.62;55.41
42169;BME280;27838;43.858;25.974;2022-11-15T08:54:54;101740.53;;;12.54;55.42
42169;BME280;27838;43.858;25.974;2022-11-15T08:57:21;101737.06;;;12.55;55.48
42169;BME280;27838;43.858;25.974;2022-11-15T08:59:47;101740.56;;;12.57;55.74
42169;BME280;27838;43.858;25.974;2022-11-15T09:02:14;101735.41;;;12.63;55.37
42169;BME280;27838;43.858;25.974;2022-11-15T09:04:42;101733.63;;;12.62;55.39
42169;BME280;27838;43.858;25.974;2022-11-15T09:07:10;101727.53;;;12.60;55.61
42169;BME280;27838;43.858;25.974;2022-11-15T09:09:37;101724.91;;;12.60;56.01
42169;BME280;27838;43.858;25.974;2022-11-15T09:12:05;101725.75;;;12.59;56.11
42169;BME280;27838;43.858;25.974;2022-11-15T09:14:32;101720.53;;;12.59;55.93
42169;BME280;27838;43.858;25.974;2022-11-15T09:16:59;101720.59;;;12.67;55.81
42169;BME280;27838;43.858;25.974;2022-11-15T09:19:26;101718.00;;;12.69;55.62
42169;BME280;27838;43.858;25.974;2022-11-15T09:21:53;101710.09;;;12.64;55.99
42169;BME280;27838;43.858;25.974;2022-11-15T09:24:19;101702.25;;;12.62;55.89
42169;BME280;27838;43.858;25.974;2022-11-15T09:26:46;101702.22;;;12.61;55.81
42169;BME280;27838;43.858;25.974;2022-11-15T09:29:12;101690.03;;;12.63;55.65
42169;BME280;27838;43.858;25.974;2022-11-15T09:31:39;101686.56;;;12.64;55.68
42169;BME280;27838;43.858;25.974;2022-11-15T09:34:05;101687.47;;;12.69;55.70
42169;BME280;27838;43.858;25.974;2022-11-15T09:36:32;101677.03;;;12.71;55.56
42169;BME280;27838;43.858;25.974;2022-11-15T09:38:58;101677.81;;;12.60;55.37
42169;BME280;27838;43.858;25.974;2022-11-15T09:49:53;101656.91;;;12.65;55.37
42169;BME280;27838;43.858;25.974;2022-11-15T09:52:22;101658.72;;;12.71;55.22
42169;BME280;27838;43.858;25.974;2022-11-15T09:54:50;101662.25;;;12.76;55.43
42169;BME280;27838;43.858;25.974;2022-11-15T09:57:31;101658.75;;;12.77;55.28
42169;BME280;27838;43.858;25.974;2022-11-15T10:03:11;101653.53;;;12.80;54.93
42169;BME280;27838;43.858;25.974;2022-11-15T10:05:38;101654.41;;;12.82;55.24
42169;BME280;27838;43.858;25.974;2022-11-15T10:08:23;101651.78;;;12.82;55.37
42169;BME280;27838;43.858;25.974;2022-11-15T10:11:03;101650.06;;;12.84;54.92
42169;BME280;27838;43.858;25.974;2022-11-15T10:13:34;101639.56;;;12.78;54.58
42169;BME280;27838;43.858;25.974;2022-11-15T10:21:26;101630.88;;;12.85;54.81
42169;BME280;27838;43.858;25.974;2022-11-15T10:23:55;101623.91;;;12.85;54.51
42169;BME280;27838;43.858;25.974;2022-11-15T10:26:23;101623.94;;;12.89;54.80
42169;BME280;27838;43.858;25.974;2022-11-15T10:28:50;101623.06;;;12.88;54.66
42169;BME280;27838;43.858;25.974;2022-11-15T10:31:27;101612.59;;;12.87;54.94
42169;BME280;27838;43.858;25.974;2022-11-15T10:34:10;101613.44;;;12.85;55.13
42169;BME280;27838;43.858;25.974;2022-11-15T10:36:47;101613.44;;;12.84;55.35
42169;BME280;27838;43.858;25.974;2022-11-15T10:39:20;101604.72;;;12.85;55.20
42169;BME280;27838;43.858;25.974;2022-11-15T10:41:46;101597.72;;;12.84;55.12
42169;BME280;27838;43.858;25.974;2022-11-15T10:46:44;101591.66;;;12.88;55.66
42169;BME280;27838;43.858;25.974;2022-11-15T10:49:19;101591.66;;;12.90;55.44
42169;BME280;27838;43.858;25.974;2022-11-15T10:51:53;101582.91;;;12.88;55.62
42169;BME280;27838;43.858;25.974;2022-11-15T10:54:56;101587.31;;;12.93;55.61
42169;BME280;27838;43.858;25.974;2022-11-15T10:57:30;101584.69;;;12.92;55.54
42169;BME280;27838;43.858;25.974;2022-11-15T11:00:02;101571.63;;;12.92;55.31
42169;BME280;27838;43.858;25.974;2022-11-15T11:02:37;101567.25;;;12.95;55.08
42169;BME280;27838;43.858;25.974;2022-11-15T11:05:36;101568.13;;;12.94;54.87
42169;BME280;27838;43.858;25.974;2022-11-15T11:08:22;101565.50;;;12.90;54.93
42169;BME280;27838;43.858;25.974;2022-11-15T11:10:57;101567.22;;;12.88;54.78
42169;BME280;27838;43.858;25.974;2022-11-15T11:13:37;101560.22;;;12.83;54.52
42169;BME280;27838;43.858;25.974;2022-11-15T11:16:20;101550.66;;;12.81;54.31
42169;BME280;27838;43.858;25.974;2022-11-15T11:25:04;101547.16;;;12.83;54.64
42169;BME280;27838;43.858;25.974;2022-11-15T11:27:18;101533.22;;;12.86;54.59
42169;BME280;27838;43.858;25.974;2022-11-15T11:30:29;101524.47;;;12.84;54.78
42169;BME280;27838;43.858;25.974;2022-11-15T11:33:24;101525.38;;;12.86;54.84
42169;BME280;27838;43.858;25.974;2022-11-15T11:41:38;101525.41;;;12.97;54.60
42169;BME280;27838;43.858;25.974;2022-11-15T11:44:34;101518.38;;;12.91;54.19
42169;BME280;27838;43.858;25.974;2022-11-15T11:47:13;101510.56;;;12.88;54.24
42169;BME280;27838;43.858;25.974;2022-11-15T11:49:55;101510.53;;;12.91;54.17
42169;BME280;27838;43.858;25.974;2022-11-15T11:55:32;101500.06;;;12.91;54.36
42169;BME280;27838;43.858;25.974;2022-11-15T12:00:51;101505.34;;;12.97;54.47
42169;BME280;27838;43.858;25.974;2022-11-15T12:03:35;101502.72;;;13.00;54.56
42169;BME280;27838;43.858;25.974;2022-11-15T12:06:21;101503.59;;;12.99;54.32
42169;BME280;27838;43.858;25.974;2022-11-15T12:09:11;101500.06;;;12.91;54.05
42169;BME280;27838;43.858;25.974;2022-11-15T12:14:33;101496.59;;;12.89;54.93
42169;BME280;27838;43.858;25.974;2022-11-15T12:17:00;101493.09;;;12.87;54.95
42169;BME280;27838;43.858;25.974;2022-11-15T12:19:28;101487.84;;;12.85;54.45
42169;BME280;27838;43.858;25.974;2022-11-15T12:22:03;101487.84;;;12.78;54.63
42169;BME280;27838;43.858;25.974;2022-11-15T12:24:39;101482.63;;;12.81;54.79
42169;BME280;27838;43.858;25.974;2022-11-15T12:29:52;101471.28;;;12.77;54.94
42169;BME280;27838;43.858;25.974;2022-11-15T12:32:32;101470.44;;;12.86;54.78
42169;BME280;27838;43.858;25.974;2022-11-15T12:35:02;101466.97;;;12.93;54.60
42169;BME280;27838;43.858;25.974;2022-11-15T12:42:42;101466.06;;;12.93;54.45
42169;BME280;27838;43.858;25.974;2022-11-15T12:45:28;101459.09;;;12.96;53.83
42169;BME280;27838;43.858;25.974;2022-11-15T12:51:04;101453.00;;;12.97;54.31
42169;BME280;27838;43.858;25.974;2022-11-15T12:53:33;101451.25;;;12.95;54.25
42169;BME280;27838;43.858;25.974;2022-11-15T12:58:59;101440.75;;;12.87;54.04
42169;BME280;27838;43.858;25.974;2022-11-15T13:07:06;101442.50;;;12.93;54.06
42169;BME280;27838;43.858;25.974;2022-11-15T13:14:47;101437.28;;;13.05;53.94
42169;BME280;27838;43.858;25.974;2022-11-15T13:17:57;101432.06;;;12.97;54.08
42169;BME280;27838;43.858;25.974;2022-11-15T13:20:27;101426.81;;;12.94;54.30
42169;BME280;27838;43.858;25.974;2022-11-15T13:30:58;101418.13;;;12.97;54.01
42169;BME280;27838;43.858;25.974;2022-11-15T13:33:33;101405.00;;;13.00;54.11
42169;BME280;27838;43.858;25.974;2022-11-15T13:36:16;101408.53;;;13.03;53.77
42169;BME280;27838;43.858;25.974;2022-11-15T13:38:44;101402.41;;;13.04;53.86
42169;BME280;27838;43.858;25.974;2022-11-15T13:41:24;101398.06;;;13.08;54.16
42169;BME280;27838;43.858;25.974;2022-11-15T13:43:52;101405.03;;;13.11;54.13
42169;BME280;27838;43.858;25.974;2022-11-15T13:46:27;101391.97;;;13.11;54.28
42169;BME280;27838;43.858;25.974;2022-11-15T13:49:04;101394.59;;;13.12;53.97
42169;BME280;27838;43.858;25.974;2022-11-15T13:56:56;101390.22;;;13.14;54.03
42169;BME280;27838;43.858;25.974;2022-11-15T13:59:28;101390.19;;;13.10;54.00
42169;BME280;27838;43.858;25.974;2022-11-15T14:01:57;101379.75;;;13.03;53.66
42169;BME280;27838;43.858;25.974;2022-11-15T14:04:27;101384.97;;;12.97;54.11
42169;BME280;27838;43.858;25.974;2022-11-15T14:06:57;101376.25;;;12.92;54.30
42169;BME280;27838;43.858;25.974;2022-11-15T14:11:58;101365.75;;;12.88;54.54
42169;BME280;27838;43.858;25.974;2022-11-15T14:14:27;101354.41;;;12.84;54.32
42169;BME280;27838;43.858;25.974;2022-11-15T14:16:56;101375.38;;;12.92;54.95
42169;BME280;27838;43.858;25.974;2022-11-15T14:22:28;101373.63;;;12.86;54.55
42169;BME280;27838;43.858;25.974;2022-11-15T14:25:17;101369.25;;;12.82;55.13
42169;BME280;27838;43.858;25.974;2022-11-15T14:30:41;101359.66;;;12.76;55.28
42169;BME280;27838;43.858;25.974;2022-11-15T14:33:20;101358.78;;;12.73;54.91
42169;BME280;27838;43.858;25.974;2022-11-15T14:35:48;101358.78;;;12.73;55.10
42169;BME280;27838;43.858;25.974;2022-11-15T14:38:15;101346.56;;;12.72;55.31
42169;BME280;27838;43.858;25.974;2022-11-15T14:40:42;101345.72;;;12.76;55.03
42169;BME280;27838;43.858;25.974;2022-11-15T14:43:10;101343.09;;;12.76;55.33
42169;BME280;27838;43.858;25.974;2022-11-15T14:45:37;101337.84;;;12.71;54.91
42169;BME280;27838;43.858;25.974;2022-11-15T14:48:04;101334.38;;;12.72;55.24
42169;BME280;27838;43.858;25.974;2022-11-15T14:50:33;101333.50;;;12.75;55.17